Latest Coastal Weather Observations for Cape Sorell

IDT60701

Issued at 5:25 pm EDT Wednesday 22 October 2014 (issued every 10 minutes, with the page automatically refreshed every 10 minutes)

About coastal observations | Map of coastal stations | Coastal observations for TAS | Marine services | Other Formats
Station Details ID: 097000 Name: CAPE SORELL Lat: -42.20 Lon: 145.17 Height: 19.3 m
Data from the previous 72 hours. | See also: Recent months at Cape Sorell
Date/Time
EDT
Temp

°C
Wind Pressure Rain
since 9am
mm
Weather Cloud Vis
km
Sea
Height
m
Swell
Dir
 
Speed
knots
Gust
knots
hPa Trend Height
m
Period
s
Dir
22/05:00pm 14.9 SW 13 16 1016.5 - 0.0 - - - - - - -
22/04:30pm 15.1 SW 8 11 1016.3 - 0.0 - - - - - - -
22/04:00pm 15.3 SSW 7 9 1015.9 - 0.0 - - - - - - -
22/03:30pm 15.4 SSW 7 10 1015.9 - 0.0 - - - - - - -
22/03:00pm 15.5 S 10 11 1016.1 - 0.0 - - - - - - -
22/02:30pm 16.0 SW 10 15 1015.7 - 0.0 - - - - - - -
22/02:00pm 17.8 WSW 10 12 1015.4 - 0.0 - - - - - - -
22/01:30pm 18.7 NNW 7 8 1014.9 - 0.0 - - - - - - -
22/01:00pm 17.6 N 9 10 1014.7 - 0.0 - - - - - - -
22/12:30pm 18.4 NNE 12 13 1014.2 - 0.0 - - - - - - -
22/12:00pm 18.3 NNE 12 14 1014.6 - 0.0 - - - - - - -
22/11:30am 17.4 NNE 14 15 1015.5 - 0.0 - - - - - - -
22/11:00am 18.1 NNE 13 14 1016.1 - 0.0 - - - - - - -
22/10:30am 17.6 NNE 13 15 1016.4 - 0.0 - - - - - - -
22/10:00am 16.6 NNE 14 15 1016.5 - 0.0 - - - - - - -
22/09:30am 17.0 NNE 13 14 1016.7 - 0.0 - - - - - - -
22/09:00am 16.2 NE 13 15 1017.0 - 0.0 - - - - - - -
22/08:30am 15.4 NE 13 16 1017.3 - 0.0 - - - - - - -
22/08:00am 14.2 NE 13 18 1017.3 - 0.0 - - - - - - -
22/07:30am 13.1 NE 12 15 1017.7 - 0.0 - - - - - - -
22/07:00am 12.5 NE 11 13 1017.9 - 0.0 - - - - - - -
22/06:30am 12.3 NE 11 13 1018.1 - 0.0 - - - - - - -
22/06:00am 12.0 NE 10 13 1018.3 - 0.0 - - - - - - -
22/05:30am 12.2 NE 11 14 1018.3 - 0.0 - - - - - - -
22/05:00am 11.7 ENE 10 12 1018.6 - 0.0 - - - - - - -
22/04:30am 11.7 ENE 10 12 1018.9 - 0.0 - - - - - - -
22/04:00am 11.6 ENE 10 12 1019.2 - 0.0 - - - - - - -
22/03:30am 11.5 ENE 10 13 1019.6 - 0.0 - - - - - - -
22/03:00am 12.0 NE 9 12 1020.2 - 0.0 - - - - - - -
22/02:30am 12.0 NE 9 11 1020.7 - 0.0 - - - - - - -
22/02:00am 12.4 NE 11 14 1021.2 - 0.0 - - - - - - -
22/01:30am 12.6 NNE 11 13 1021.7 - 0.0 - - - - - - -
22/01:00am 12.9 NNE 12 15 1022.5 - 0.0 - - - - - - -
22/12:30am 13.0 NNE 13 16 1022.9 - 0.0 - - - - - - -
22/12:00am 13.1 NNE 11 13 1023.2 - 0.0 - - - - - - -
 
Date/Time
EDT
Temp

°C
Wind Pressure Rain
since 9am
mm
Weather Cloud Vis
km
Sea
Height
m
Swell
Dir
 
Speed
knots
Gust
knots
hPa Trend Height
m
Period
s
Dir
21/11:30pm 12.8 NNE 8 10 1023.6 - 0.0 - - - - - - -
21/11:00pm 12.4 NE 5 7 1024.1 - 0.0 - - - - - - -
21/10:30pm 13.4 N 10 13 1024.2 - 0.0 - - - - - - -
21/10:00pm 13.9 N 16 20 1024.5 - 0.0 - - - - - - -
21/09:30pm 13.9 N 10 12 1025.0 - 0.0 - - - - - - -
21/09:00pm 13.9 NNE 7 8 1025.1 - 0.0 - - - - - - -
21/08:30pm 12.8 S 2 3 1025.2 - 0.0 - - - - - - -
21/08:00pm 12.8 SSE 5 6 1025.6 - 0.0 - - - - - - -
21/07:30pm 13.5 S 7 9 1025.3 - 0.0 - - - - - - -
21/07:00pm 14.1 S 10 13 1025.3 - 0.0 - - - - - - -
21/06:30pm 14.4 S 11 14 1025.4 - 0.0 - - - - - - -
21/06:00pm 14.4 S 13 16 1025.6 - 0.0 - - - - - - -
21/05:30pm 14.7 S 14 18 1026.1 - 0.0 - - - - - - -
21/05:00pm 14.5 S 15 18 1026.3 - 0.0 - - - - - - -
21/04:30pm 14.6 S 15 18 1026.5 - 0.0 - - - - - - -
21/04:00pm 15.3 S 13 17 1027.1 - 0.0 - - - - - - -
21/03:30pm 15.1 S 14 17 1027.3 - 0.0 - - - - - - -
21/03:00pm 14.9 S 15 19 1027.7 - 0.0 - - - - - - -
21/02:30pm 15.2 S 14 16 1028.2 - 0.0 - - - - - - -
21/02:00pm 15.2 S 11 14 1028.7 - 0.0 - - - - - - -
21/01:30pm 15.7 S 10 12 1029.1 - 0.0 - - - - - - -
21/01:00pm 17.1 SSW 8 9 1029.6 - 0.0 - - - - - - -
21/12:30pm 15.2 S 7 8 1029.9 - 0.0 - - - - - - -
21/12:00pm 15.4 SSW 7 8 1030.4 - 0.0 - - - - - - -
21/11:30am 15.0 SSW 4 7 1030.7 - 0.0 - - - - - - -
21/11:00am 15.7 N 3 4 1031.2 - 0.0 - - - - - - -
21/10:30am 14.4 N 3 4 1031.4 - 0.0 - - - - - - -
21/10:00am 12.8 NNE 7 8 1031.5 - 0.0 - - - - - - -
21/09:30am 12.1 NE 6 8 1031.7 - 0.0 - - - - - - -
21/09:00am 11.9 ENE 6 9 1031.9 - 0.0 - - - - - - -
21/08:30am 10.8 ENE 7 9 1032.1 - 0.0 - - - - - - -
21/08:00am 9.9 E 6 8 1032.0 - 0.0 - - - - - - -
21/07:30am 8.5 E 8 10 1032.3 - 0.0 - - - - - - -
21/07:00am 7.8 E 9 11 1032.1 - 0.0 - - - - - - -
21/06:30am 7.1 E 9 10 1031.9 - 0.0 - - - - - - -
21/06:00am 7.6 E 9 11 1031.8 - 0.0 - - - - - - -
21/05:30am 7.2 ESE 8 9 1031.7 - 0.0 - - - - - - -
21/05:00am 6.8 E 7 8 1031.4 - 0.0 - - - - - - -
21/04:30am 7.3 ENE 7 8 1031.2 - 0.0 - - - - - - -
21/04:00am 8.2 NE 8 11 1031.1 - 0.0 - - - - - - -
21/03:30am 7.7 ENE 7 10 1031.5 - 0.0 - - - - - - -
21/03:00am 10.2 N 14 18 1031.7 - 0.0 - - - - - - -
21/02:41am 10.6 N 15 20 1031.8 - 0.0 - - - - - - -
21/02:30am 10.4 N 7 9 1032.2 - 0.0 - - - - - - -
21/02:00am 10.6 N 11 13 1032.4 - 0.0 - - - - - - -
21/01:30am 10.7 NNW 8 11 1032.5 - 0.0 - - - - - - -
21/01:00am 10.7 NW 9 11 1032.8 - 0.0 - - - - - - -
21/12:30am 10.6 N 8 12 1032.8 - 0.0 - - - - - - -
21/12:00am 10.3 N 7 9 1032.8 - 0.0 - - - - - - -
 
Date/Time
EDT
Temp

°C
Wind Pressure Rain
since 9am
mm
Weather Cloud Vis
km
Sea
Height
m
Swell
Dir
 
Speed
knots
Gust
knots
hPa Trend Height
m
Period
s
Dir
20/11:30pm 10.4 NNE 10 12 1032.8 - 0.0 - - - - - - -
20/11:00pm 8.1 ENE 5 6 1032.9 - 0.0 - - - - - - -
20/10:30pm 8.0 E 4 5 1032.9 - 0.0 - - - - - - -
20/10:00pm 8.3 SE 3 5 1033.0 - 0.0 - - - - - - -
20/09:30pm 8.9 SSE 7 10 1032.9 - 0.0 - - - - - - -
20/09:00pm 9.5 S 9 12 1032.8 - 0.0 - - - - - - -
20/08:30pm 9.8 S 10 13 1032.6 - 0.0 - - - - - - -
20/08:00pm 10.0 S 13 16 1032.2 - 0.0 - - - - - - -
20/07:30pm 10.7 S 16 21 1032.1 - 0.0 - - - - - - -
20/07:00pm 11.2 S 18 24 1032.1 - 0.0 - - - - - - -
20/06:30pm 11.4 S 20 24 1032.2 - 0.0 - - - - - - -
20/06:00pm 11.9 S 19 23 1032.4 - 0.0 - - - - - - -
20/05:30pm 12.2 S 19 22 1032.7 - 0.0 - - - - - - -
20/05:00pm 12.3 S 18 21 1032.8 - 0.0 - - - - - - -
20/04:30pm 12.5 S 17 21 1032.8 - 0.0 - - - - - - -
20/04:00pm 12.3 SSW 17 20 1032.8 - 0.0 - - - - - - -
20/03:30pm 12.4 S 18 21 1032.9 - 0.0 - - - - - - -
20/03:00pm 13.1 SSW 15 18 1033.3 - 0.0 - - - - - - -
20/02:30pm 13.2 SSW 15 18 1033.4 - 0.0 - - - - - - -
20/02:00pm 13.5 SSW 13 15 1033.8 - 0.0 - - - - - - -
20/01:30pm 13.1 SSW 11 13 1034.0 - 0.0 - - - - - - -
20/01:00pm 13.1 SSW 9 11 1034.3 - 0.0 - - - - - - -
20/12:30pm 12.3 SSW 7 9 1034.5 - 0.0 - - - - - - -
20/12:00pm 12.1 ESE 5 8 1034.6 - 0.0 - - - - - - -
20/11:30am 12.1 SE 7 11 1034.7 - 0.0 - - - - - - -
20/11:00am 12.2 ESE 9 13 1034.6 - 0.0 - - - - - - -
20/10:30am 12.2 ESE 9 13 1034.7 - 0.0 - - - - - - -
20/10:00am 11.2 ESE 8 12 1034.6 - 0.0 - - - - - - -
20/09:30am 10.0 E 9 12 1034.4 - 0.0 - - - - - - -
20/09:00am 10.2 E 6 8 1034.1 - 5.2 - - - - - - -
20/08:30am 9.3 E 6 8 1033.7 - 5.2 - - - - - - -
20/08:00am 8.6 E 6 9 1033.3 - 5.2 - - - - - - -
20/07:30am 7.8 E 4 8 1032.9 - 5.2 - - - - - - -
20/07:00am 6.5 E 5 7 1032.5 - 5.2 - - - - - - -
20/06:30am 5.9 ESE 5 6 1032.0 - 5.2 - - - - - - -
20/06:00am 5.8 E 8 9 1031.6 - 5.2 - - - - - - -
20/05:30am 6.0 E 7 9 1031.2 - 5.2 - - - - - - -
20/05:00am 6.4 E 8 10 1030.7 - 5.2 - - - - - - -
20/04:30am 6.1 ESE 6 10 1030.7 - 5.2 - - - - - - -
20/04:00am 7.0 SSE 9 12 1030.3 - 5.2 - - - - - - -
20/03:30am 7.6 SSE 10 13 1030.3 - 5.2 - - - - - - -
20/03:00am 9.4 S 15 20 1030.3 - 5.2 - - - - - - -
20/02:30am 8.9 S 13 21 1030.1 - 5.2 - - - - - - -
20/02:00am 8.3 SE 9 10 1030.0 - 5.2 - - - - - - -
20/01:30am 7.8 SSE 8 12 1029.7 - 5.2 - - - - - - -
20/01:17am 8.3 SSE 17 27 1029.7 - 5.2 - - - - - - -
20/01:00am 9.3 S 21 28 1029.2 - 5.2 - - - - - - -
20/12:30am 9.7 SSW 20 23 1028.9 - 5.2 - - - - - - -
20/12:00am 9.9 SSW 19 23 1028.4 - 5.2 - - - - - - -
 
Date/Time
EDT
Temp

°C
Wind Pressure Rain
since 9am
mm
Weather Cloud Vis
km
Sea
Height
m
Swell
Dir
 
Speed
knots
Gust
knots
hPa Trend Height
m
Period
s
Dir
19/11:30pm 9.9 S 19 22 1028.2 - 5.2 - - - - - - -
19/11:00pm 9.8 S 19 25 1027.6 - 5.2 - - - - - - -
19/10:30pm 9.7 S 22 27 1027.4 - 5.2 - - - - - - -
19/10:00pm 9.6 SSW 21 25 1027.1 - 5.2 - - - - - - -
19/09:30pm 10.0 S 25 31 1026.5 - 5.2 - - - - - - -
19/09:00pm 9.7 SSW 22 27 1026.0 - 5.2 - - - - - - -
19/08:30pm 9.6 SSW 28 33 1025.2 - 5.2 - - - - - - -
19/08:13pm 10.0 SSW 26 39 1024.2 - 5.2 - - - - - - -
19/08:00pm 9.9 SSW 25 30 1024.2 - 5.2 - - - - - - -
19/07:30pm 10.0 SSW 26 31 1023.4 - 5.2 - - - - - - -
19/07:00pm 9.6 SSW 22 25 1022.8 - 5.2 - - - - - - -
19/06:30pm 9.3 SSW 21 26 1022.4 - 5.2 - - - - - - -
19/06:00pm 9.4 SW 23 29 1021.7 - 5.2 Recent precip. - - - - - -
19/05:30pm 9.0 SW 18 24 1021.3 - 4.8 - - - - - - -

Other Formats:

Comma delimited format used in spreadsheet applications
http://www.bom.gov.au/fwo/IDT60701/IDT60701.94974.axf

JavaScript Object Notation format (JSON) in row-major order
http://www.bom.gov.au/fwo/IDT60701/IDT60701.94974.json